sensor_id;sensor_type;location;lat;lon;timestamp;temperature;humidity
24035;DHT22;12242;50.952;4.678;2023-02-28T00:00:00;1.40;99.90
24035;DHT22;12242;50.952;4.678;2023-02-28T00:02:27;1.40;99.90
24035;DHT22;12242;50.952;4.678;2023-02-28T00:04:55;1.30;99.90
24035;DHT22;12242;50.952;4.678;2023-02-28T00:07:28;1.40;99.90
24035;DHT22;12242;50.952;4.678;2023-02-28T00:09:56;1.40;99.90
24035;DHT22;12242;50.952;4.678;2023-02-28T00:12:24;1.30;99.90
24035;DHT22;12242;50.952;4.678;2023-02-28T00:14:52;1.30;99.90
24035;DHT22;12242;50.952;4.678;2023-02-28T00:17:20;1.20;99.90
24035;DHT22;12242;50.952;4.678;2023-02-28T00:19:48;1.20;99.90
24035;DHT22;12242;50.952;4.678;2023-02-28T00:22:18;1.20;99.90
24035;DHT22;12242;50.952;4.678;2023-02-28T00:24:45;1.30;99.90
24035;DHT22;12242;50.952;4.678;2023-02-28T00:27:14;1.30;99.90
24035;DHT22;12242;50.952;4.678;2023-02-28T00:29:41;1.30;99.90
24035;DHT22;12242;50.952;4.678;2023-02-28T00:32:09;1.40;99.90
24035;DHT22;12242;50.952;4.678;2023-02-28T00:34:37;1.30;99.90
24035;DHT22;12242;50.952;4.678;2023-02-28T00:37:09;1.20;99.90
24035;DHT22;12242;50.952;4.678;2023-02-28T00:39:39;1.20;99.90
24035;DHT22;12242;50.952;4.678;2023-02-28T00:42:08;1.20;99.90
24035;DHT22;12242;50.952;4.678;2023-02-28T00:44:35;1.20;99.90
24035;DHT22;12242;50.952;4.678;2023-02-28T00:47:03;1.20;99.90
24035;DHT22;12242;50.952;4.678;2023-02-28T00:49:30;1.20;99.90
24035;DHT22;12242;50.952;4.678;2023-02-28T00:51:58;1.20;99.90
24035;DHT22;12242;50.952;4.678;2023-02-28T00:54:26;1.30;99.90
24035;DHT22;12242;50.952;4.678;2023-02-28T00:56:54;1.20;99.90
24035;DHT22;12242;50.952;4.678;2023-02-28T00:59:21;1.30;99.90
24035;DHT22;12242;50.952;4.678;2023-02-28T01:01:48;1.30;99.90
24035;DHT22;12242;50.952;4.678;2023-02-28T01:04:16;1.40;99.90
24035;DHT22;12242;50.952;4.678;2023-02-28T01:06:44;1.50;99.90
24035;DHT22;12242;50.952;4.678;2023-02-28T01:09:12;1.40;99.90
24035;DHT22;12242;50.952;4.678;2023-02-28T01:11:40;1.30;99.90
24035;DHT22;12242;50.952;4.678;2023-02-28T01:14:11;1.30;99.90
24035;DHT22;12242;50.952;4.678;2023-02-28T01:16:39;1.30;99.90
24035;DHT22;12242;50.952;4.678;2023-02-28T01:19:07;1.20;99.90
24035;DHT22;12242;50.952;4.678;2023-02-28T01:21:35;1.20;99.90
24035;DHT22;12242;50.952;4.678;2023-02-28T01:24:04;1.10;99.90
24035;DHT22;12242;50.952;4.678;2023-02-28T01:26:32;1.00;99.90
24035;DHT22;12242;50.952;4.678;2023-02-28T01:28:59;0.90;99.90
24035;DHT22;12242;50.952;4.678;2023-02-28T01:31:27;0.90;99.90
24035;DHT22;12242;50.952;4.678;2023-02-28T01:33:55;1.00;99.90
24035;DHT22;12242;50.952;4.678;2023-02-28T01:36:24;1.00;99.90
24035;DHT22;12242;50.952;4.678;2023-02-28T01:38:52;1.00;99.90
24035;DHT22;12242;50.952;4.678;2023-02-28T01:41:25;0.90;99.90
24035;DHT22;12242;50.952;4.678;2023-02-28T01:47:12;0.60;99.90
24035;DHT22;12242;50.952;4.678;2023-02-28T01:49:40;0.50;99.90
24035;DHT22;12242;50.952;4.678;2023-02-28T01:52:09;0.50;99.90
24035;DHT22;12242;50.952;4.678;2023-02-28T01:54:56;0.60;99.90
24035;DHT22;12242;50.952;4.678;2023-02-28T01:57:30;0.60;99.90
24035;DHT22;12242;50.952;4.678;2023-02-28T02:00:16;0.70;99.90
24035;DHT22;12242;50.952;4.678;2023-02-28T02:02:47;0.60;99.90
24035;DHT22;12242;50.952;4.678;2023-02-28T02:05:21;0.70;99.90
24035;DHT22;12242;50.952;4.678;2023-02-28T02:07:52;0.80;99.90
24035;DHT22;12242;50.952;4.678;2023-02-28T02:10:27;0.80;99.90
24035;DHT22;12242;50.952;4.678;2023-02-28T02:40:57;0.80;99.90
24035;DHT22;12242;50.952;4.678;2023-02-28T02:43:34;0.90;99.90
24035;DHT22;12242;50.952;4.678;2023-02-28T02:46:08;0.80;99.90
24035;DHT22;12242;50.952;4.678;2023-02-28T02:48:39;0.70;99.90
24035;DHT22;12242;50.952;4.678;2023-02-28T02:51:11;0.70;99.90
24035;DHT22;12242;50.952;4.678;2023-02-28T02:53:55;0.70;99.90
24035;DHT22;12242;50.952;4.678;2023-02-28T02:56:24;0.70;99.90
24035;DHT22;12242;50.952;4.678;2023-02-28T02:58:58;0.70;99.90
24035;DHT22;12242;50.952;4.678;2023-02-28T03:01:29;0.60;99.90
24035;DHT22;12242;50.952;4.678;2023-02-28T03:04:02;0.60;99.90
24035;DHT22;12242;50.952;4.678;2023-02-28T03:06:30;0.70;99.90
24035;DHT22;12242;50.952;4.678;2023-02-28T03:08:58;0.80;99.90
24035;DHT22;12242;50.952;4.678;2023-02-28T03:11:27;0.80;99.90
24035;DHT22;12242;50.952;4.678;2023-02-28T03:28:15;1.00;99.90
24035;DHT22;12242;50.952;4.678;2023-02-28T03:30:54;1.10;99.90
24035;DHT22;12242;50.952;4.678;2023-02-28T03:33:32;1.10;99.90
24035;DHT22;12242;50.952;4.678;2023-02-28T03:38:50;1.10;99.90
24035;DHT22;12242;50.952;4.678;2023-02-28T03:41:19;1.10;99.90
24035;DHT22;12242;50.952;4.678;2023-02-28T03:43:55;1.20;99.90
24035;DHT22;12242;50.952;4.678;2023-02-28T03:46:26;1.10;99.90
24035;DHT22;12242;50.952;4.678;2023-02-28T03:49:03;1.10;99.90
24035;DHT22;12242;50.952;4.678;2023-02-28T03:51:34;0.90;99.90
24035;DHT22;12242;50.952;4.678;2023-02-28T03:54:08;1.00;99.90
24035;DHT22;12242;50.952;4.678;2023-02-28T03:56:45;0.90;99.90
24035;DHT22;12242;50.952;4.678;2023-02-28T03:59:24;0.90;99.90
24035;DHT22;12242;50.952;4.678;2023-02-28T04:01:53;0.90;99.90
24035;DHT22;12242;50.952;4.678;2023-02-28T04:04:22;1.00;99.90
24035;DHT22;12242;50.952;4.678;2023-02-28T04:06:51;0.90;99.90
24035;DHT22;12242;50.952;4.678;2023-02-28T04:09:19;0.90;99.90
24035;DHT22;12242;50.952;4.678;2023-02-28T04:11:52;1.00;99.90
24035;DHT22;12242;50.952;4.678;2023-02-28T04:14:20;1.10;99.90
24035;DHT22;12242;50.952;4.678;2023-02-28T04:16:48;1.10;99.90
24035;DHT22;12242;50.952;4.678;2023-02-28T04:19:15;1.20;99.90
24035;DHT22;12242;50.952;4.678;2023-02-28T04:21:46;1.40;99.90
24035;DHT22;12242;50.952;4.678;2023-02-28T04:24:19;1.30;99.90
24035;DHT22;12242;50.952;4.678;2023-02-28T04:26:49;1.30;99.90
24035;DHT22;12242;50.952;4.678;2023-02-28T04:29:31;1.30;99.90
24035;DHT22;12242;50.952;4.678;2023-02-28T04:32:00;1.20;99.90
24035;DHT22;12242;50.952;4.678;2023-02-28T04:34:29;1.40;99.90
24035;DHT22;12242;50.952;4.678;2023-02-28T04:36:57;1.40;99.90
24035;DHT22;12242;50.952;4.678;2023-02-28T04:39:39;1.40;99.90
24035;DHT22;12242;50.952;4.678;2023-02-28T04:42:07;1.30;99.90
24035;DHT22;12242;50.952;4.678;2023-02-28T04:44:35;1.40;99.90
24035;DHT22;12242;50.952;4.678;2023-02-28T04:47:02;1.30;99.90
24035;DHT22;12242;50.952;4.678;2023-02-28T04:49:30;1.30;99.90
24035;DHT22;12242;50.952;4.678;2023-02-28T04:51:58;1.20;99.90
24035;DHT22;12242;50.952;4.678;2023-02-28T04:54:26;1.10;99.90
24035;DHT22;12242;50.952;4.678;2023-02-28T04:56:53;1.10;99.90
24035;DHT22;12242;50.952;4.678;2023-02-28T04:59:22;1.00;99.90
24035;DHT22;12242;50.952;4.678;2023-02-28T05:01:49;1.00;99.90
24035;DHT22;12242;50.952;4.678;2023-02-28T05:04:17;0.90;99.90
24035;DHT22;12242;50.952;4.678;2023-02-28T05:06:45;0.90;99.90
24035;DHT22;12242;50.952;4.678;2023-02-28T05:09:12;1.10;99.90
24035;DHT22;12242;50.952;4.678;2023-02-28T05:11:41;1.10;99.90
24035;DHT22;12242;50.952;4.678;2023-02-28T05:14:13;1.00;99.90
24035;DHT22;12242;50.952;4.678;2023-02-28T05:16:41;1.00;99.90
24035;DHT22;12242;50.952;4.678;2023-02-28T05:19:09;0.90;99.90
24035;DHT22;12242;50.952;4.678;2023-02-28T05:21:51;1.00;99.90
24035;DHT22;12242;50.952;4.678;2023-02-28T05:24:20;0.90;99.90
24035;DHT22;12242;50.952;4.678;2023-02-28T05:26:51;0.90;99.90
24035;DHT22;12242;50.952;4.678;2023-02-28T05:29:20;0.90;99.90
24035;DHT22;12242;50.952;4.678;2023-02-28T05:31:48;0.80;99.90
24035;DHT22;12242;50.952;4.678;2023-02-28T05:34:15;0.80;99.90
24035;DHT22;12242;50.952;4.678;2023-02-28T05:36:43;0.90;99.90
24035;DHT22;12242;50.952;4.678;2023-02-28T05:39:11;0.90;99.90
24035;DHT22;12242;50.952;4.678;2023-02-28T05:41:41;1.00;99.90
24035;DHT22;12242;50.952;4.678;2023-02-28T05:44:09;0.90;99.90
24035;DHT22;12242;50.952;4.678;2023-02-28T05:46:37;1.10;99.90
24035;DHT22;12242;50.952;4.678;2023-02-28T05:49:05;1.10;99.90
24035;DHT22;12242;50.952;4.678;2023-02-28T05:51:33;1.30;99.90
24035;DHT22;12242;50.952;4.678;2023-02-28T05:54:03;1.50;99.90
24035;DHT22;12242;50.952;4.678;2023-02-28T05:56:31;1.60;99.90
24035;DHT22;12242;50.952;4.678;2023-02-28T05:58:59;1.70;99.90
24035;DHT22;12242;50.952;4.678;2023-02-28T06:04:09;1.70;99.90
24035;DHT22;12242;50.952;4.678;2023-02-28T06:06:57;1.70;99.90
24035;DHT22;12242;50.952;4.678;2023-02-28T06:09:25;1.50;99.90
24035;DHT22;12242;50.952;4.678;2023-02-28T06:11:52;1.60;99.90
24035;DHT22;12242;50.952;4.678;2023-02-28T06:14:21;1.70;99.90
24035;DHT22;12242;50.952;4.678;2023-02-28T06:16:48;1.70;99.90
24035;DHT22;12242;50.952;4.678;2023-02-28T06:19:16;1.80;99.90
24035;DHT22;12242;50.952;4.678;2023-02-28T06:21:44;1.60;99.90
24035;DHT22;12242;50.952;4.678;2023-02-28T06:24:12;1.60;99.90
24035;DHT22;12242;50.952;4.678;2023-02-28T06:26:40;1.60;99.90
24035;DHT22;12242;50.952;4.678;2023-02-28T06:29:07;1.50;99.90
24035;DHT22;12242;50.952;4.678;2023-02-28T06:31:35;1.50;99.90
24035;DHT22;12242;50.952;4.678;2023-02-28T06:34:03;1.50;99.90
24035;DHT22;12242;50.952;4.678;2023-02-28T06:36:30;1.60;99.90
24035;DHT22;12242;50.952;4.678;2023-02-28T06:38:58;1.60;99.90
24035;DHT22;12242;50.952;4.678;2023-02-28T06:41:26;1.70;99.90
24035;DHT22;12242;50.952;4.678;2023-02-28T06:43:55;1.70;99.90
24035;DHT22;12242;50.952;4.678;2023-02-28T06:46:23;1.70;99.90
24035;DHT22;12242;50.952;4.678;2023-02-28T06:48:50;1.80;99.90
24035;DHT22;12242;50.952;4.678;2023-02-28T06:51:20;1.90;99.90
24035;DHT22;12242;50.952;4.678;2023-02-28T06:53:50;1.90;99.90
24035;DHT22;12242;50.952;4.678;2023-02-28T06:56:18;2.00;99.90
24035;DHT22;12242;50.952;4.678;2023-02-28T06:58:49;2.10;99.90
24035;DHT22;12242;50.952;4.678;2023-02-28T07:01:17;2.20;99.90
24035;DHT22;12242;50.952;4.678;2023-02-28T07:03:45;2.30;99.90
24035;DHT22;12242;50.952;4.678;2023-02-28T07:06:13;2.60;99.90
24035;DHT22;12242;50.952;4.678;2023-02-28T07:08:41;3.00;99.90
24035;DHT22;12242;50.952;4.678;2023-02-28T07:11:08;3.50;99.90
24035;DHT22;12242;50.952;4.678;2023-02-28T07:13:36;3.70;99.90
24035;DHT22;12242;50.952;4.678;2023-02-28T07:16:06;3.60;99.90
24035;DHT22;12242;50.952;4.678;2023-02-28T07:18:35;3.40;99.90
24035;DHT22;12242;50.952;4.678;2023-02-28T07:21:04;3.20;99.90
24035;DHT22;12242;50.952;4.678;2023-02-28T07:23:32;3.40;99.90
24035;DHT22;12242;50.952;4.678;2023-02-28T07:26:00;3.40;99.90
24035;DHT22;12242;50.952;4.678;2023-02-28T07:28:28;3.30;99.90
24035;DHT22;12242;50.952;4.678;2023-02-28T07:30:55;3.20;99.90
24035;DHT22;12242;50.952;4.678;2023-02-28T07:33:23;3.30;99.90
24035;DHT22;12242;50.952;4.678;2023-02-28T07:35:51;3.40;99.90
24035;DHT22;12242;50.952;4.678;2023-02-28T07:38:19;3.40;99.90
24035;DHT22;12242;50.952;4.678;2023-02-28T07:40:46;3.40;99.90
24035;DHT22;12242;50.952;4.678;2023-02-28T07:43:13;3.20;99.90
24035;DHT22;12242;50.952;4.678;2023-02-28T07:45:41;3.20;99.90
24035;DHT22;12242;50.952;4.678;2023-02-28T07:48:08;3.00;99.90
24035;DHT22;12242;50.952;4.678;2023-02-28T07:50:37;3.00;99.90
24035;DHT22;12242;50.952;4.678;2023-02-28T07:53:05;3.10;99.90
24035;DHT22;12242;50.952;4.678;2023-02-28T07:55:32;3.10;99.90
24035;DHT22;12242;50.952;4.678;2023-02-28T07:58:00;3.10;99.90
24035;DHT22;12242;50.952;4.678;2023-02-28T08:00:27;3.10;99.90
24035;DHT22;12242;50.952;4.678;2023-02-28T08:02:56;3.10;99.90
24035;DHT22;12242;50.952;4.678;2023-02-28T08:05:23;3.00;99.90
24035;DHT22;12242;50.952;4.678;2023-02-28T08:07:51;3.00;99.90
24035;DHT22;12242;50.952;4.678;2023-02-28T08:10:20;2.80;99.90
24035;DHT22;12242;50.952;4.678;2023-02-28T08:12:48;2.70;99.90
24035;DHT22;12242;50.952;4.678;2023-02-28T08:15:15;2.70;99.90
24035;DHT22;12242;50.952;4.678;2023-02-28T08:17:43;2.70;99.90
24035;DHT22;12242;50.952;4.678;2023-02-28T08:20:11;2.70;99.90
24035;DHT22;12242;50.952;4.678;2023-02-28T08:22:38;2.80;99.90
24035;DHT22;12242;50.952;4.678;2023-02-28T08:25:06;2.90;99.90
24035;DHT22;12242;50.952;4.678;2023-02-28T08:27:35;2.90;99.90
24035;DHT22;12242;50.952;4.678;2023-02-28T08:30:04;3.00;99.90
24035;DHT22;12242;50.952;4.678;2023-02-28T08:32:33;3.10;99.90
24035;DHT22;12242;50.952;4.678;2023-02-28T08:35:01;3.20;99.90
24035;DHT22;12242;50.952;4.678;2023-02-28T08:37:30;3.30;99.90
24035;DHT22;12242;50.952;4.678;2023-02-28T08:39:57;3.30;99.90
24035;DHT22;12242;50.952;4.678;2023-02-28T08:42:25;3.30;99.90
24035;DHT22;12242;50.952;4.678;2023-02-28T08:44:52;3.30;99.90
24035;DHT22;12242;50.952;4.678;2023-02-28T08:47:20;3.20;99.90
24035;DHT22;12242;50.952;4.678;2023-02-28T08:49:47;3.30;99.90
24035;DHT22;12242;50.952;4.678;2023-02-28T08:52:15;3.40;99.90
24035;DHT22;12242;50.952;4.678;2023-02-28T08:54:42;3.90;99.90
24035;DHT22;12242;50.952;4.678;2023-02-28T08:57:10;4.90;99.90
24035;DHT22;12242;50.952;4.678;2023-02-28T08:59:37;5.80;99.90
24035;DHT22;12242;50.952;4.678;2023-02-28T09:02:05;6.70;99.90
24035;DHT22;12242;50.952;4.678;2023-02-28T09:04:33;7.20;99.60
24035;DHT22;12242;50.952;4.678;2023-02-28T09:07:01;7.60;98.20
24035;DHT22;12242;50.952;4.678;2023-02-28T09:09:28;8.10;97.60
24035;DHT22;12242;50.952;4.678;2023-02-28T09:11:56;8.70;95.70
24035;DHT22;12242;50.952;4.678;2023-02-28T09:14:24;9.50;94.70
24035;DHT22;12242;50.952;4.678;2023-02-28T09:16:52;9.60;92.90
24035;DHT22;12242;50.952;4.678;2023-02-28T09:19:20;9.80;92.70
24035;DHT22;12242;50.952;4.678;2023-02-28T09:21:48;9.90;91.70
24035;DHT22;12242;50.952;4.678;2023-02-28T09:24:15;10.30;90.30
24035;DHT22;12242;50.952;4.678;2023-02-28T09:26:43;11.20;90.20
24035;DHT22;12242;50.952;4.678;2023-02-28T09:29:30;12.20;86.00
24035;DHT22;12242;50.952;4.678;2023-02-28T09:31:58;12.30;81.90
24035;DHT22;12242;50.952;4.678;2023-02-28T09:34:27;11.50;81.10
24035;DHT22;12242;50.952;4.678;2023-02-28T09:36:55;11.60;79.20
24035;DHT22;12242;50.952;4.678;2023-02-28T09:39:23;12.00;81.50
24035;DHT22;12242;50.952;4.678;2023-02-28T09:41:52;12.40;75.90
24035;DHT22;12242;50.952;4.678;2023-02-28T09:44:27;12.30;72.50
24035;DHT22;12242;50.952;4.678;2023-02-28T09:47:18;12.10;72.30
24035;DHT22;12242;50.952;4.678;2023-02-28T09:49:50;11.10;74.40
24035;DHT22;12242;50.952;4.678;2023-02-28T09:52:23;10.90;77.40
24035;DHT22;12242;50.952;4.678;2023-02-28T09:54:53;10.20;74.20
24035;DHT22;12242;50.952;4.678;2023-02-28T09:57:41;10.90;75.10
24035;DHT22;12242;50.952;4.678;2023-02-28T10:00:18;11.70;70.60
24035;DHT22;12242;50.952;4.678;2023-02-28T10:05:33;11.20;68.50
24035;DHT22;12242;50.952;4.678;2023-02-28T10:08:18;11.30;68.70
24035;DHT22;12242;50.952;4.678;2023-02-28T10:10:57;12.20;66.30
24035;DHT22;12242;50.952;4.678;2023-02-28T10:13:35;11.60;68.20
24035;DHT22;12242;50.952;4.678;2023-02-28T10:16:11;11.00;69.60
24035;DHT22;12242;50.952;4.678;2023-02-28T10:18:51;10.90;68.10
24035;DHT22;12242;50.952;4.678;2023-02-28T10:21:30;10.80;69.20
24035;DHT22;12242;50.952;4.678;2023-02-28T10:26:43;11.40;69.10
24035;DHT22;12242;50.952;4.678;2023-02-28T10:29:12;10.90;70.70
24035;DHT22;12242;50.952;4.678;2023-02-28T10:31:40;11.30;70.20
24035;DHT22;12242;50.952;4.678;2023-02-28T10:34:12;11.10;67.10
24035;DHT22;12242;50.952;4.678;2023-02-28T10:36:40;11.90;65.80
24035;DHT22;12242;50.952;4.678;2023-02-28T10:39:39;12.60;66.30
24035;DHT22;12242;50.952;4.678;2023-02-28T10:42:22;12.30;65.30
24035;DHT22;12242;50.952;4.678;2023-02-28T10:45:18;11.80;64.10
24035;DHT22;12242;50.952;4.678;2023-02-28T10:50:53;13.60;60.20
24035;DHT22;12242;50.952;4.678;2023-02-28T11:01:16;13.50;59.20
24035;DHT22;12242;50.952;4.678;2023-02-28T11:03:44;14.40;57.20
24035;DHT22;12242;50.952;4.678;2023-02-28T11:06:19;14.00;59.90
24035;DHT22;12242;50.952;4.678;2023-02-28T11:08:53;14.70;56.60
24035;DHT22;12242;50.952;4.678;2023-02-28T11:11:24;14.60;58.40
24035;DHT22;12242;50.952;4.678;2023-02-28T11:14:04;15.10;56.60
24035;DHT22;12242;50.952;4.678;2023-02-28T11:16:35;13.70;56.50
24035;DHT22;12242;50.952;4.678;2023-02-28T11:19:05;13.60;60.20
24035;DHT22;12242;50.952;4.678;2023-02-28T11:21:36;13.10;60.80
24035;DHT22;12242;50.952;4.678;2023-02-28T11:24:33;13.10;61.20
24035;DHT22;12242;50.952;4.678;2023-02-28T11:27:03;12.80;58.10
24035;DHT22;12242;50.952;4.678;2023-02-28T11:29:32;13.60;59.50
24035;DHT22;12242;50.952;4.678;2023-02-28T11:32:03;14.50;59.80
24035;DHT22;12242;50.952;4.678;2023-02-28T11:34:32;14.40;56.00
24035;DHT22;12242;50.952;4.678;2023-02-28T11:37:00;14.00;55.90
24035;DHT22;12242;50.952;4.678;2023-02-28T11:39:28;14.10;56.30
24035;DHT22;12242;50.952;4.678;2023-02-28T11:45:08;15.00;54.70
24035;DHT22;12242;50.952;4.678;2023-02-28T11:47:51;15.00;54.90
24035;DHT22;12242;50.952;4.678;2023-02-28T11:55:58;13.60;55.70
24035;DHT22;12242;50.952;4.678;2023-02-28T12:07:07;13.90;55.30
24035;DHT22;12242;50.952;4.678;2023-02-28T12:26:34;14.30;53.70
24035;DHT22;12242;50.952;4.678;2023-02-28T12:32:24;13.90;53.40
24035;DHT22;12242;50.952;4.678;2023-02-28T12:34:58;13.50;53.70
24035;DHT22;12242;50.952;4.678;2023-02-28T12:40:18;12.80;55.60
24035;DHT22;12242;50.952;4.678;2023-02-28T12:42:52;13.60;55.80
24035;DHT22;12242;50.952;4.678;2023-02-28T12:45:28;14.60;53.70
24035;DHT22;12242;50.952;4.678;2023-02-28T12:48:05;14.80;53.20
24035;DHT22;12242;50.952;4.678;2023-02-28T12:50:33;14.00;55.40
24035;DHT22;12242;50.952;4.678;2023-02-28T12:53:07;13.50;56.80
24035;DHT22;12242;50.952;4.678;2023-02-28T12:58:26;12.10;58.40
24035;DHT22;12242;50.952;4.678;2023-02-28T13:04:05;12.30;56.70
24035;DHT22;12242;50.952;4.678;2023-02-28T13:09:24;14.00;55.20
24035;DHT22;12242;50.952;4.678;2023-02-28T13:11:53;14.40;55.40
24035;DHT22;12242;50.952;4.678;2023-02-28T13:14:28;14.60;53.00
24035;DHT22;12242;50.952;4.678;2023-02-28T13:19:32;13.50;55.80
24035;DHT22;12242;50.952;4.678;2023-02-28T13:22:01;13.40;54.40
24035;DHT22;12242;50.952;4.678;2023-02-28T13:24:47;13.10;55.80
24035;DHT22;12242;50.952;4.678;2023-02-28T13:29:43;12.30;56.50
24035;DHT22;12242;50.952;4.678;2023-02-28T13:32:35;12.50;57.80
24035;DHT22;12242;50.952;4.678;2023-02-28T13:37:37;12.30;56.40
24035;DHT22;12242;50.952;4.678;2023-02-28T13:42:57;12.90;55.40
24035;DHT22;12242;50.952;4.678;2023-02-28T13:45:28;12.40;55.80
24035;DHT22;12242;50.952;4.678;2023-02-28T13:48:04;13.40;58.00
24035;DHT22;12242;50.952;4.678;2023-02-28T13:50:43;12.30;55.60
24035;DHT22;12242;50.952;4.678;2023-02-28T13:56:15;12.40;55.00
24035;DHT22;12242;50.952;4.678;2023-02-28T14:04:08;12.50;55.40
24035;DHT22;12242;50.952;4.678;2023-02-28T14:06:39;12.50;55.30
24035;DHT22;12242;50.952;4.678;2023-02-28T14:09:40;13.30;54.40
24035;DHT22;12242;50.952;4.678;2023-02-28T14:15:38;13.80;55.60
24035;DHT22;12242;50.952;4.678;2023-02-28T14:30:05;12.10;57.90
24035;DHT22;12242;50.952;4.678;2023-02-28T14:32:53;12.30;57.00
24035;DHT22;12242;50.952;4.678;2023-02-28T14:35:46;12.20;57.40
24035;DHT22;12242;50.952;4.678;2023-02-28T14:38:27;11.90;57.00
24035;DHT22;12242;50.952;4.678;2023-02-28T14:41:00;12.10;55.30
24035;DHT22;12242;50.952;4.678;2023-02-28T14:43:28;12.60;58.00
24035;DHT22;12242;50.952;4.678;2023-02-28T14:46:01;12.70;58.60
24035;DHT22;12242;50.952;4.678;2023-02-28T14:48:30;12.00;58.30
24035;DHT22;12242;50.952;4.678;2023-02-28T14:50:59;11.40;59.70
24035;DHT22;12242;50.952;4.678;2023-02-28T14:53:30;12.00;58.60
24035;DHT22;12242;50.952;4.678;2023-02-28T14:56:02;12.30;58.10
24035;DHT22;12242;50.952;4.678;2023-02-28T14:58:32;12.00;57.80
24035;DHT22;12242;50.952;4.678;2023-02-28T15:01:03;10.90;59.30
24035;DHT22;12242;50.952;4.678;2023-02-28T15:03:37;11.00;59.20
24035;DHT22;12242;50.952;4.678;2023-02-28T15:06:11;11.40;58.80
24035;DHT22;12242;50.952;4.678;2023-02-28T15:08:40;11.30;59.70
24035;DHT22;12242;50.952;4.678;2023-02-28T15:11:18;11.30;59.80
24035;DHT22;12242;50.952;4.678;2023-02-28T15:13:50;11.30;61.50
24035;DHT22;12242;50.952;4.678;2023-02-28T15:21:50;10.00;63.40
24035;DHT22;12242;50.952;4.678;2023-02-28T15:24:20;10.20;61.50
24035;DHT22;12242;50.952;4.678;2023-02-28T15:26:55;10.40;60.40
24035;DHT22;12242;50.952;4.678;2023-02-28T15:29:25;10.50;59.50
24035;DHT22;12242;50.952;4.678;2023-02-28T15:32:05;10.10;60.60
24035;DHT22;12242;50.952;4.678;2023-02-28T15:34:40;9.90;62.20
24035;DHT22;12242;50.952;4.678;2023-02-28T15:40:06;10.20;61.70
24035;DHT22;12242;50.952;4.678;2023-02-28T15:42:35;10.20;60.70
24035;DHT22;12242;50.952;4.678;2023-02-28T15:45:02;10.30;60.50
24035;DHT22;12242;50.952;4.678;2023-02-28T15:47:30;10.30;59.90
24035;DHT22;12242;50.952;4.678;2023-02-28T15:50:10;10.10;60.70
24035;DHT22;12242;50.952;4.678;2023-02-28T15:52:43;9.60;61.10
24035;DHT22;12242;50.952;4.678;2023-02-28T15:55:19;9.10;62.80
24035;DHT22;12242;50.952;4.678;2023-02-28T15:57:50;9.10;63.30
24035;DHT22;12242;50.952;4.678;2023-02-28T16:00:23;9.00;62.70
24035;DHT22;12242;50.952;4.678;2023-02-28T16:02:51;9.40;63.80
24035;DHT22;12242;50.952;4.678;2023-02-28T16:05:21;9.10;64.20
24035;DHT22;12242;50.952;4.678;2023-02-28T16:07:56;8.90;66.00
24035;DHT22;12242;50.952;4.678;2023-02-28T16:10:26;9.00;64.70
24035;DHT22;12242;50.952;4.678;2023-02-28T16:12:55;8.70;66.10
24035;DHT22;12242;50.952;4.678;2023-02-28T16:17:53;8.00;66.10
24035;DHT22;12242;50.952;4.678;2023-02-28T16:22:50;8.10;67.00
24035;DHT22;12242;50.952;4.678;2023-02-28T16:25:21;8.00;68.30
24035;DHT22;12242;50.952;4.678;2023-02-28T16:27:51;7.80;66.90
24035;DHT22;12242;50.952;4.678;2023-02-28T16:30:26;7.60;66.70
24035;DHT22;12242;50.952;4.678;2023-02-28T16:32:55;7.60;67.80
24035;DHT22;12242;50.952;4.678;2023-02-28T16:35:23;7.40;68.40
24035;DHT22;12242;50.952;4.678;2023-02-28T16:37:51;7.30;68.30
24035;DHT22;12242;50.952;4.678;2023-02-28T16:40:22;7.10;68.90
24035;DHT22;12242;50.952;4.678;2023-02-28T16:42:52;6.80;69.60
24035;DHT22;12242;50.952;4.678;2023-02-28T16:45:23;6.80;70.00
24035;DHT22;12242;50.952;4.678;2023-02-28T16:47:52;6.60;71.00
24035;DHT22;12242;50.952;4.678;2023-02-28T16:50:25;6.50;71.50
24035;DHT22;12242;50.952;4.678;2023-02-28T16:52:54;6.50;72.30
24035;DHT22;12242;50.952;4.678;2023-02-28T16:55:24;6.30;73.30
24035;DHT22;12242;50.952;4.678;2023-02-28T16:57:56;6.20;73.70
24035;DHT22;12242;50.952;4.678;2023-02-28T17:00:26;5.90;73.80
24035;DHT22;12242;50.952;4.678;2023-02-28T17:02:55;5.90;75.60
24035;DHT22;12242;50.952;4.678;2023-02-28T17:05:23;5.90;73.90
24035;DHT22;12242;50.952;4.678;2023-02-28T17:07:51;5.90;74.70
24035;DHT22;12242;50.952;4.678;2023-02-28T17:10:24;5.90;75.10
24035;DHT22;12242;50.952;4.678;2023-02-28T17:12:52;5.90;74.80
24035;DHT22;12242;50.952;4.678;2023-02-28T17:15:29;6.00;75.20
24035;DHT22;12242;50.952;4.678;2023-02-28T17:17:58;5.90;76.10
24035;DHT22;12242;50.952;4.678;2023-02-28T17:20:26;5.90;77.00
24035;DHT22;12242;50.952;4.678;2023-02-28T17:22:54;5.90;76.90
24035;DHT22;12242;50.952;4.678;2023-02-28T17:25:23;6.00;82.10
24035;DHT22;12242;50.952;4.678;2023-02-28T17:27:51;6.00;78.10
24035;DHT22;12242;50.952;4.678;2023-02-28T17:30:21;5.90;80.70
24035;DHT22;12242;50.952;4.678;2023-02-28T17:32:48;6.00;80.00
24035;DHT22;12242;50.952;4.678;2023-02-28T17:35:16;5.90;82.60
24035;DHT22;12242;50.952;4.678;2023-02-28T17:37:44;5.90;80.70
24035;DHT22;12242;50.952;4.678;2023-02-28T17:40:18;5.90;82.40
24035;DHT22;12242;50.952;4.678;2023-02-28T17:42:46;5.90;83.80
24035;DHT22;12242;50.952;4.678;2023-02-28T17:45:15;5.90;81.70
24035;DHT22;12242;50.952;4.678;2023-02-28T17:47:47;5.90;87.60
24035;DHT22;12242;50.952;4.678;2023-02-28T17:50:18;5.90;85.50
24035;DHT22;12242;50.952;4.678;2023-02-28T17:52:45;5.80;90.10
24035;DHT22;12242;50.952;4.678;2023-02-28T17:55:13;5.80;88.20
24035;DHT22;12242;50.952;4.678;2023-02-28T17:57:41;5.70;89.70
24035;DHT22;12242;50.952;4.678;2023-02-28T18:00:12;5.60;90.80
24035;DHT22;12242;50.952;4.678;2023-02-28T18:02:40;5.60;91.00
24035;DHT22;12242;50.952;4.678;2023-02-28T18:05:09;5.70;91.70
24035;DHT22;12242;50.952;4.678;2023-02-28T18:07:37;5.70;92.20
24035;DHT22;12242;50.952;4.678;2023-02-28T18:10:07;5.70;93.30
24035;DHT22;12242;50.952;4.678;2023-02-28T18:12:38;5.70;93.70
24035;DHT22;12242;50.952;4.678;2023-02-28T18:15:06;5.70;93.30
24035;DHT22;12242;50.952;4.678;2023-02-28T18:17:34;5.60;94.30
24035;DHT22;12242;50.952;4.678;2023-02-28T18:20:01;5.40;90.80
24035;DHT22;12242;50.952;4.678;2023-02-28T18:22:31;5.30;91.50
24035;DHT22;12242;50.952;4.678;2023-02-28T18:24:59;5.20;91.70
24035;DHT22;12242;50.952;4.678;2023-02-28T18:27:27;5.00;91.90
24035;DHT22;12242;50.952;4.678;2023-02-28T18:29:54;4.90;93.20
24035;DHT22;12242;50.952;4.678;2023-02-28T18:32:22;4.80;94.10
24035;DHT22;12242;50.952;4.678;2023-02-28T18:34:49;4.80;95.40
24035;DHT22;12242;50.952;4.678;2023-02-28T18:37:17;4.80;95.90
24035;DHT22;12242;50.952;4.678;2023-02-28T18:39:45;4.80;96.30
24035;DHT22;12242;50.952;4.678;2023-02-28T18:42:13;4.70;95.10
24035;DHT22;12242;50.952;4.678;2023-02-28T18:44:41;4.70;97.00
24035;DHT22;12242;50.952;4.678;2023-02-28T18:47:08;4.60;95.30